createdAt,value
2019-03-17T00:00:49.435Z,20.25
2019-03-17T00:03:16.336Z,20.24
2019-03-17T00:05:43.265Z,20.24
2019-03-17T00:08:10.174Z,20.25
2019-03-17T00:10:37.107Z,20.25
2019-03-17T00:13:04.046Z,20.24
2019-03-17T00:15:30.978Z,20.24
2019-03-17T00:17:57.908Z,20.25
2019-03-17T00:20:24.821Z,20.24
2019-03-17T00:22:51.775Z,20.24
2019-03-17T00:25:18.727Z,20.25
2019-03-17T00:27:45.659Z,20.23
2019-03-17T00:30:12.681Z,20.24
2019-03-17T00:32:39.678Z,20.24
2019-03-17T00:35:06.569Z,20.24
2019-03-17T00:37:33.550Z,20.24
2019-03-17T00:40:00.534Z,20.23
2019-03-17T00:42:27.391Z,20.23
2019-03-17T00:44:54.394Z,20.23
2019-03-17T00:47:21.328Z,20.23
2019-03-17T00:49:48.326Z,20.23
2019-03-17T00:52:15.395Z,20.23
2019-03-17T00:54:42.508Z,20.24
2019-03-17T00:57:28.610Z,20.24
2019-03-17T00:59:55.569Z,20.23
2019-03-17T01:02:22.678Z,20.25
2019-03-17T01:04:56.256Z,20.24
2019-03-17T01:07:18.223Z,20.24
2019-03-17T01:09:45.173Z,20.23
2019-03-17T01:12:12.179Z,20.23
2019-03-17T01:14:39.096Z,20.23
2019-03-17T01:17:06.052Z,20.24
2019-03-17T01:19:33.034Z,20.24
2019-03-17T01:21:59.947Z,20.23
2019-03-17T01:24:26.893Z,20.25
2019-03-17T01:26:53.794Z,20.24
2019-03-17T01:29:20.703Z,20.23
2019-03-17T01:31:47.646Z,20.23
2019-03-17T01:34:14.622Z,20.23
2019-03-17T01:36:41.492Z,20.23
2019-03-17T01:39:08.463Z,20.22
2019-03-17T01:41:35.390Z,20.24
2019-03-17T01:44:02.302Z,20.23
2019-03-17T01:46:29.241Z,20.23
2019-03-17T01:48:56.179Z,20.23
2019-03-17T01:51:23.097Z,20.23
2019-03-17T01:53:50.009Z,20.22
2019-03-17T01:56:16.925Z,20.23
2019-03-17T01:58:43.856Z,20.23
2019-03-17T02:01:12.023Z,20.23
2019-03-17T02:03:39.117Z,20.23
2019-03-17T02:06:06.126Z,20.22
2019-03-17T02:08:33.047Z,20.22
2019-03-17T02:10:59.985Z,20.22
2019-03-17T02:13:26.928Z,20.22
2019-03-17T02:15:53.879Z,20.22
2019-03-17T02:18:20.787Z,20.22
2019-03-17T02:20:47.750Z,20.22
2019-03-17T02:23:14.679Z,20.23
2019-03-17T02:25:41.606Z,20.23
2019-03-17T02:28:08.516Z,20.22
2019-03-17T02:30:35.453Z,20.22
2019-03-17T02:33:02.371Z,20.23
2019-03-17T02:35:38.693Z,20.21
2019-03-17T02:37:57.918Z,20.22
2019-03-17T02:40:24.838Z,20.22
2019-03-17T02:42:51.934Z,20.21
2019-03-17T02:45:18.843Z,20.22
2019-03-17T02:47:45.793Z,20.22
2019-03-17T02:50:12.772Z,20.22
2019-03-17T02:52:39.711Z,20.22
2019-03-17T02:55:06.646Z,20.21
2019-03-17T02:57:33.577Z,20.22
2019-03-17T03:00:00.841Z,20.22
2019-03-17T03:02:27.824Z,20.22
2019-03-17T03:04:54.729Z,20.21
2019-03-17T03:07:21.692Z,20.21
2019-03-17T03:09:48.605Z,20.21
2019-03-17T03:12:15.661Z,20.22
2019-03-17T03:14:42.601Z,20.22
2019-03-17T03:17:09.581Z,20.22
2019-03-17T03:19:36.461Z,20.21
2019-03-17T03:22:03.459Z,20.22
2019-03-17T03:24:30.376Z,20.21
2019-03-17T03:26:57.280Z,20.21
2019-03-17T03:29:27.197Z,20.21
2019-03-17T03:31:52.839Z,20.22
2019-03-17T03:34:19.786Z,20.20
2019-03-17T03:36:46.757Z,20.20
2019-03-17T03:39:13.672Z,20.21
2019-03-17T03:41:40.576Z,20.20
2019-03-17T03:44:07.514Z,20.21
2019-03-17T03:46:34.422Z,20.21
2019-03-17T03:49:01.344Z,20.21
2019-03-17T03:51:28.259Z,20.21
2019-03-17T03:53:55.435Z,20.22
2019-03-17T03:56:22.540Z,20.21
2019-03-17T03:58:49.456Z,20.20
2019-03-17T04:01:16.366Z,20.21
2019-03-17T04:03:43.299Z,20.21
2019-03-17T04:06:25.292Z,20.21
2019-03-17T04:08:38.825Z,20.21
2019-03-17T04:11:05.800Z,20.21
2019-03-17T04:13:32.708Z,20.22
2019-03-17T04:15:59.726Z,20.20
2019-03-17T04:18:26.723Z,20.20
2019-03-17T04:20:53.623Z,20.20
2019-03-17T04:23:20.598Z,20.21
2019-03-17T04:25:47.541Z,20.21
2019-03-17T04:28:14.485Z,20.21
2019-03-17T04:30:41.410Z,20.21
2019-03-17T04:33:08.462Z,20.21
2019-03-17T04:35:35.380Z,20.20
2019-03-17T04:38:02.389Z,20.21
2019-03-17T04:40:29.349Z,20.20
2019-03-17T04:42:56.324Z,20.20
2019-03-17T04:45:23.254Z,20.20
2019-03-17T04:47:50.183Z,20.19
2019-03-17T04:50:17.132Z,20.21
2019-03-17T04:52:44.146Z,20.20
2019-03-17T04:55:11.152Z,20.20
2019-03-17T04:57:38.161Z,20.21
2019-03-17T05:00:05.129Z,20.21
2019-03-17T05:02:32.049Z,20.19
2019-03-17T05:04:58.969Z,20.20
2019-03-17T05:07:25.871Z,20.20
2019-03-17T05:09:52.782Z,20.20
2019-03-17T05:12:19.757Z,20.20
2019-03-17T05:14:46.713Z,20.20
2019-03-17T05:17:13.649Z,20.21
2019-03-17T05:19:40.576Z,20.20
2019-03-17T05:22:07.544Z,20.19
2019-03-17T05:24:34.512Z,20.20
2019-03-17T05:27:01.440Z,20.19
2019-03-17T05:29:28.394Z,20.20
2019-03-17T05:31:55.323Z,20.19
2019-03-17T05:34:22.315Z,20.19
2019-03-17T05:36:49.305Z,20.20
2019-03-17T05:39:16.279Z,20.20
2019-03-17T05:41:43.132Z,20.19
2019-03-17T05:44:10.064Z,20.19
2019-03-17T05:46:37.036Z,20.20
2019-03-17T05:49:03.965Z,20.19
2019-03-17T05:51:30.930Z,20.19
2019-03-17T05:53:57.856Z,20.19
2019-03-17T05:56:24.789Z,20.20
2019-03-17T05:58:51.706Z,20.19
2019-03-17T06:01:18.661Z,20.19
2019-03-17T06:03:45.601Z,20.19
2019-03-17T06:06:12.516Z,20.19
2019-03-17T06:08:39.447Z,20.19
2019-03-17T06:11:06.381Z,20.18
2019-03-17T06:13:33.322Z,20.19
2019-03-17T06:16:00.265Z,20.19
2019-03-17T06:18:27.314Z,20.19
2019-03-17T06:20:54.251Z,20.20
2019-03-17T06:23:21.160Z,20.19
2019-03-17T06:25:48.075Z,20.19
2019-03-17T06:28:15.013Z,20.19
2019-03-17T06:30:41.936Z,20.19
2019-03-17T06:33:08.861Z,19.77
2019-03-17T06:35:35.788Z,20.19
2019-03-17T06:38:02.770Z,20.19
2019-03-17T06:40:29.676Z,20.19
2019-03-17T06:42:56.588Z,20.18
2019-03-17T06:45:23.542Z,20.18
2019-03-17T06:47:50.463Z,20.18
2019-03-17T06:50:17.383Z,20.18
2019-03-17T06:52:44.312Z,20.18
2019-03-17T06:55:11.251Z,20.18
2019-03-17T06:57:38.160Z,20.18
2019-03-17T07:00:05.101Z,20.18
2019-03-17T07:02:32.226Z,20.18
2019-03-17T07:04:59.187Z,20.18
2019-03-17T07:07:26.125Z,20.18
2019-03-17T07:09:53.044Z,20.17
2019-03-17T07:12:20.137Z,20.18
2019-03-17T07:14:47.082Z,20.18
2019-03-17T07:17:14.037Z,20.18
2019-03-17T07:19:40.956Z,20.19
2019-03-17T07:22:07.889Z,20.18
2019-03-17T07:24:34.846Z,20.19
2019-03-17T07:27:01.780Z,20.18
2019-03-17T07:29:28.720Z,20.18
2019-03-17T07:31:55.731Z,20.18
2019-03-17T07:34:22.588Z,20.18
2019-03-17T07:36:49.563Z,20.17
2019-03-17T07:39:16.495Z,20.18
2019-03-17T07:41:44.220Z,20.18
2019-03-17T07:44:11.190Z,20.18
2019-03-17T07:46:38.084Z,20.19
2019-03-17T07:49:05.036Z,20.18
2019-03-17T07:51:31.964Z,20.17
2019-03-17T07:53:58.877Z,20.18
2019-03-17T07:56:25.917Z,20.17
2019-03-17T07:58:52.832Z,20.21
2019-03-17T08:01:19.779Z,20.28
2019-03-17T08:03:46.695Z,20.29
2019-03-17T08:06:13.669Z,20.29
2019-03-17T08:08:40.661Z,18.06
2019-03-17T08:11:07.688Z,17.00
2019-03-17T08:13:34.617Z,16.78
2019-03-17T08:16:01.526Z,16.62
2019-03-17T08:18:28.460Z,16.39
2019-03-17T08:20:55.444Z,16.20
2019-03-17T08:23:22.357Z,16.36
2019-03-17T08:25:49.371Z,16.37
2019-03-17T08:28:16.281Z,16.34
2019-03-17T08:30:52.428Z,16.25
2019-03-17T08:33:11.745Z,16.39
2019-03-17T08:35:38.681Z,16.52
2019-03-17T08:38:05.589Z,16.67
2019-03-17T08:40:32.496Z,16.97
2019-03-17T08:42:59.481Z,16.94
2019-03-17T08:45:26.382Z,16.93
2019-03-17T08:47:58.312Z,17.02
2019-03-17T08:50:21.854Z,17.20
2019-03-17T08:52:48.762Z,17.19
2019-03-17T08:55:15.703Z,17.23
2019-03-17T08:57:42.612Z,17.33
2019-03-17T09:00:09.556Z,17.44
2019-03-17T09:02:36.539Z,17.50
2019-03-17T09:05:03.454Z,17.50
2019-03-17T09:07:30.478Z,17.52
2019-03-17T09:09:57.423Z,17.59
2019-03-17T09:12:24.368Z,17.51
2019-03-17T09:14:51.284Z,17.43
2019-03-17T09:17:18.193Z,17.42
2019-03-17T09:19:45.113Z,17.42
2019-03-17T09:22:12.018Z,17.46
2019-03-17T09:24:38.934Z,17.57
2019-03-17T09:27:05.866Z,17.58
2019-03-17T09:29:32.776Z,17.63
2019-03-17T09:31:59.684Z,17.73
2019-03-17T09:34:26.593Z,17.75
2019-03-17T09:36:53.569Z,17.76
2019-03-17T09:39:20.425Z,17.84
2019-03-17T09:41:47.431Z,18.35
2019-03-17T09:44:14.320Z,18.87
2019-03-17T09:46:41.226Z,19.06
2019-03-17T09:49:08.321Z,19.00
2019-03-17T09:51:35.223Z,18.99
2019-03-17T09:54:02.193Z,19.00
2019-03-17T09:56:29.159Z,19.01
2019-03-17T09:58:56.188Z,19.03
2019-03-17T10:01:23.127Z,19.04
2019-03-17T10:03:50.182Z,19.06
2019-03-17T10:06:17.111Z,19.07
2019-03-17T10:08:44.040Z,19.09
2019-03-17T10:11:11.115Z,19.25
2019-03-17T10:13:38.025Z,19.25
2019-03-17T10:16:05.516Z,19.26
2019-03-17T10:18:32.425Z,19.36
2019-03-17T10:20:59.336Z,19.40
2019-03-17T10:23:26.245Z,19.34
2019-03-17T10:25:53.475Z,19.29
2019-03-17T10:28:20.433Z,19.33
2019-03-17T10:30:47.390Z,19.39
2019-03-17T10:33:14.343Z,19.39
2019-03-17T10:35:44.338Z,19.39
2019-03-17T10:38:11.515Z,19.38
2019-03-17T10:40:38.837Z,19.38
2019-03-17T10:43:05.946Z,19.39
2019-03-17T10:45:33.136Z,19.39
2019-03-17T10:48:00.167Z,19.40
2019-03-17T10:50:27.239Z,19.41
2019-03-17T10:52:54.169Z,19.42
2019-03-17T10:55:21.097Z,19.42
2019-03-17T10:57:48.039Z,19.43
2019-03-17T11:00:15.224Z,19.44
2019-03-17T11:02:42.366Z,19.46
2019-03-17T11:05:09.526Z,19.47
2019-03-17T11:07:36.770Z,19.47
2019-03-17T11:10:03.881Z,19.47
2019-03-17T11:12:31.004Z,19.48
2019-03-17T11:14:58.036Z,19.49
2019-03-17T11:17:24.962Z,19.51
2019-03-17T11:19:51.883Z,19.51
2019-03-17T11:22:18.858Z,19.52
2019-03-17T11:24:45.766Z,19.52
2019-03-17T11:27:12.748Z,19.53
2019-03-17T11:29:39.684Z,19.53
2019-03-17T11:32:06.857Z,19.54
2019-03-17T11:34:33.757Z,19.55
2019-03-17T11:37:00.761Z,19.56
2019-03-17T11:39:37.334Z,19.57
2019-03-17T11:41:56.315Z,19.56
2019-03-17T11:44:23.226Z,19.57
2019-03-17T11:46:50.323Z,19.58
2019-03-17T11:49:17.247Z,19.59
2019-03-17T11:51:44.166Z,19.61
2019-03-17T11:54:11.084Z,19.61
2019-03-17T11:56:38.022Z,19.61
2019-03-17T11:59:04.936Z,19.62
2019-03-17T12:01:31.914Z,19.64
2019-03-17T12:03:58.820Z,19.70
2019-03-17T12:06:25.791Z,19.75
2019-03-17T12:08:52.722Z,19.82
2019-03-17T12:11:19.638Z,19.86
2019-03-17T12:13:46.562Z,19.87
2019-03-17T12:16:13.481Z,19.88
2019-03-17T12:18:40.394Z,19.88
2019-03-17T12:21:07.320Z,19.89
2019-03-17T12:23:34.241Z,19.89
2019-03-17T12:26:01.259Z,19.93
2019-03-17T12:28:28.157Z,19.93
2019-03-17T12:30:55.177Z,19.93
2019-03-17T12:33:22.117Z,19.93
2019-03-17T12:35:49.048Z,19.93
2019-03-17T12:38:15.960Z,19.93
2019-03-17T12:40:42.880Z,19.93
2019-03-17T12:43:09.820Z,19.93
2019-03-17T12:45:36.816Z,19.93
2019-03-17T12:48:03.729Z,19.93
2019-03-17T12:50:30.652Z,19.92
2019-03-17T12:52:57.557Z,19.93
2019-03-17T12:55:24.466Z,19.93
2019-03-17T12:57:51.392Z,19.94
2019-03-17T13:00:18.301Z,19.94
2019-03-17T13:02:45.245Z,19.97
2019-03-17T13:05:12.153Z,19.96
2019-03-17T13:07:39.070Z,19.97
2019-03-17T13:10:14.877Z,19.98
2019-03-17T13:12:34.535Z,19.99
2019-03-17T13:15:01.471Z,19.99
2019-03-17T13:17:28.475Z,19.99
2019-03-17T13:19:55.395Z,20.04
2019-03-17T13:22:22.301Z,20.03
2019-03-17T13:24:49.213Z,20.01
2019-03-17T13:27:16.124Z,20.00
2019-03-17T13:29:43.053Z,20.00
2019-03-17T13:32:09.966Z,20.01
2019-03-17T13:34:36.885Z,20.00
2019-03-17T13:37:03.798Z,20.01
2019-03-17T13:39:30.808Z,19.99
2019-03-17T13:41:57.716Z,19.99
2019-03-17T13:44:24.625Z,19.99
2019-03-17T13:46:51.537Z,19.99
2019-03-17T13:49:18.524Z,20.00
2019-03-17T13:51:45.479Z,20.01
2019-03-17T13:54:12.386Z,20.01
2019-03-17T13:56:39.301Z,20.00
2019-03-17T13:59:06.584Z,20.01
2019-03-17T14:01:33.722Z,20.10
2019-03-17T14:04:00.649Z,20.12
2019-03-17T14:06:27.561Z,20.11
2019-03-17T14:08:54.473Z,20.10
2019-03-17T14:11:21.381Z,20.09
2019-03-17T14:13:48.301Z,20.10
2019-03-17T14:16:15.863Z,20.10
2019-03-17T14:18:42.917Z,20.11
2019-03-17T14:21:09.826Z,20.11
2019-03-17T14:23:36.757Z,20.11
2019-03-17T14:26:03.660Z,20.10
2019-03-17T14:28:30.620Z,20.09
2019-03-17T14:30:57.533Z,20.09
2019-03-17T14:33:24.445Z,20.08
2019-03-17T14:35:51.361Z,20.08
2019-03-17T14:38:18.265Z,20.07
2019-03-17T14:40:53.354Z,20.08
2019-03-17T14:43:13.739Z,20.08
2019-03-17T14:45:40.655Z,20.08
2019-03-17T14:48:07.564Z,20.07
2019-03-17T14:50:34.502Z,20.07
2019-03-17T14:53:01.413Z,20.07
2019-03-17T14:55:28.344Z,20.07
2019-03-17T14:57:55.257Z,20.06
2019-03-17T15:00:22.194Z,20.06
2019-03-17T15:02:49.084Z,20.07
2019-03-17T15:05:16.027Z,20.06
2019-03-17T15:07:42.924Z,20.06
2019-03-17T15:10:09.831Z,20.06
2019-03-17T15:12:36.753Z,20.07
2019-03-17T15:15:03.673Z,20.06
2019-03-17T15:17:30.972Z,20.05
2019-03-17T15:19:57.835Z,20.04
2019-03-17T15:22:24.759Z,20.03
2019-03-17T15:24:51.663Z,20.05
2019-03-17T15:27:18.583Z,20.04
2019-03-17T15:29:45.500Z,20.05
2019-03-17T15:32:12.422Z,20.06
2019-03-17T15:34:39.323Z,20.06
2019-03-17T15:37:06.240Z,20.06
2019-03-17T15:39:33.158Z,20.06
2019-03-17T15:42:00.076Z,20.07
2019-03-17T15:44:26.997Z,20.06
2019-03-17T15:46:53.960Z,20.05
2019-03-17T15:49:20.876Z,20.06
2019-03-17T15:51:47.789Z,20.07
2019-03-17T15:54:14.705Z,20.07
2019-03-17T15:56:41.618Z,20.07
2019-03-17T15:59:08.563Z,20.08
2019-03-17T16:01:35.461Z,20.08
2019-03-17T16:04:02.360Z,20.08
2019-03-17T16:06:29.306Z,20.06
2019-03-17T16:08:56.221Z,20.06
2019-03-17T16:11:30.969Z,20.07
2019-03-17T16:13:51.698Z,20.06
2019-03-17T16:16:18.613Z,20.06
2019-03-17T16:18:45.527Z,20.06
2019-03-17T16:21:12.432Z,20.07
2019-03-17T16:23:39.355Z,20.06
2019-03-17T16:26:06.252Z,20.07
2019-03-17T16:28:33.179Z,20.07
2019-03-17T16:31:00.112Z,20.07
2019-03-17T16:33:27.026Z,19.64
2019-03-17T16:35:53.931Z,20.06
2019-03-17T16:38:20.840Z,20.06
2019-03-17T16:40:47.762Z,20.07
2019-03-17T16:43:14.671Z,20.06
2019-03-17T16:45:41.602Z,20.07
2019-03-17T16:48:08.514Z,20.06
2019-03-17T16:50:35.414Z,20.08
2019-03-17T16:53:02.360Z,20.09
2019-03-17T16:55:29.278Z,20.08
2019-03-17T16:57:56.202Z,20.08
2019-03-17T17:00:23.106Z,20.07
2019-03-17T17:02:50.028Z,20.07
2019-03-17T17:05:16.927Z,20.07
2019-03-17T17:07:43.831Z,20.08
2019-03-17T17:10:10.782Z,20.07
2019-03-17T17:12:37.693Z,20.07
2019-03-17T17:15:04.595Z,20.07
2019-03-17T17:17:31.499Z,20.06
2019-03-17T17:19:58.418Z,20.06
2019-03-17T17:22:25.316Z,20.06
2019-03-17T17:24:52.290Z,20.08
2019-03-17T17:27:20.682Z,20.09
2019-03-17T17:29:47.767Z,20.09
2019-03-17T17:32:14.677Z,20.08
2019-03-17T17:34:41.620Z,20.08
2019-03-17T17:37:08.520Z,20.08
2019-03-17T17:39:35.529Z,20.08
2019-03-17T17:42:08.769Z,20.08
2019-03-17T17:44:30.997Z,20.07
2019-03-17T17:46:58.333Z,20.07
2019-03-17T17:49:25.336Z,20.07
2019-03-17T17:51:52.263Z,20.07
2019-03-17T17:54:19.220Z,20.07
2019-03-17T17:56:46.130Z,20.08
2019-03-17T17:59:13.041Z,20.08
2019-03-17T18:01:39.959Z,20.07
2019-03-17T18:04:06.873Z,20.07
2019-03-17T18:06:33.834Z,20.07
2019-03-17T18:09:00.825Z,20.07
2019-03-17T18:11:28.728Z,20.07
2019-03-17T18:13:55.945Z,20.07
2019-03-17T18:16:22.998Z,20.08
2019-03-17T18:18:49.937Z,19.67
2019-03-17T18:21:16.851Z,20.07
2019-03-17T18:23:43.757Z,20.09
2019-03-17T18:26:10.668Z,20.09
2019-03-17T18:28:37.578Z,20.08
2019-03-17T18:31:04.509Z,20.08
2019-03-17T18:33:31.468Z,20.09
2019-03-17T18:35:58.399Z,20.10
2019-03-17T18:38:25.301Z,20.09
2019-03-17T18:40:52.245Z,20.09
2019-03-17T18:43:19.159Z,20.10
2019-03-17T18:45:46.064Z,20.08
2019-03-17T18:48:13.073Z,20.08
2019-03-17T18:50:39.989Z,20.09
2019-03-17T18:53:06.900Z,20.09
2019-03-17T18:55:33.832Z,20.10
2019-03-17T18:58:00.761Z,20.08
2019-03-17T19:00:27.761Z,20.12
2019-03-17T19:02:55.708Z,20.16
2019-03-17T19:05:22.657Z,20.18
2019-03-17T19:07:49.568Z,20.17
2019-03-17T19:10:34.086Z,20.23
2019-03-17T19:13:03.753Z,20.26
2019-03-17T19:15:28.093Z,20.22
2019-03-17T19:17:55.194Z,20.21
2019-03-17T19:20:22.306Z,20.23
2019-03-17T19:22:49.244Z,20.22
2019-03-17T19:25:16.227Z,20.20
2019-03-17T19:27:43.175Z,20.20
2019-03-17T19:30:10.089Z,20.19
2019-03-17T19:32:37.015Z,20.15
2019-03-17T19:35:03.921Z,19.33
2019-03-17T19:37:30.833Z,20.20
2019-03-17T19:39:57.740Z,20.24
2019-03-17T19:42:24.703Z,20.26
2019-03-17T19:44:51.608Z,20.25
2019-03-17T19:47:18.549Z,20.20
2019-03-17T19:49:45.477Z,20.16
2019-03-17T19:52:12.512Z,20.15
2019-03-17T19:54:39.451Z,20.13
2019-03-17T19:57:06.417Z,20.15
2019-03-17T19:59:33.390Z,20.13
2019-03-17T20:02:00.359Z,20.15
2019-03-17T20:04:32.312Z,20.15
2019-03-17T20:06:55.876Z,20.13
2019-03-17T20:09:22.807Z,20.13
2019-03-17T20:11:49.791Z,20.13
2019-03-17T20:14:16.726Z,20.12
2019-03-17T20:16:43.665Z,20.13
2019-03-17T20:19:10.623Z,20.13
2019-03-17T20:21:37.541Z,20.11
2019-03-17T20:24:04.563Z,20.13
2019-03-17T20:26:31.483Z,20.12
2019-03-17T20:28:58.430Z,20.12
2019-03-17T20:31:25.387Z,20.11
2019-03-17T20:33:52.391Z,20.12
2019-03-17T20:36:19.447Z,20.11
2019-03-17T20:38:46.486Z,20.11
2019-03-17T20:41:13.424Z,20.11
2019-03-17T20:43:40.385Z,20.11
2019-03-17T20:46:07.300Z,20.11
2019-03-17T20:48:34.319Z,20.10
2019-03-17T20:51:01.263Z,20.11
2019-03-17T20:53:28.252Z,20.11
2019-03-17T20:55:55.262Z,20.11
2019-03-17T20:58:22.170Z,20.11
2019-03-17T21:00:49.202Z,20.10
2019-03-17T21:03:16.102Z,20.11
2019-03-17T21:05:43.032Z,20.10
2019-03-17T21:08:10.116Z,20.10
2019-03-17T21:10:37.122Z,20.10
2019-03-17T21:13:04.047Z,20.10
2019-03-17T21:15:30.969Z,20.09
2019-03-17T21:17:57.910Z,20.09
2019-03-17T21:20:24.853Z,20.11
2019-03-17T21:22:51.772Z,20.10
2019-03-17T21:25:18.701Z,20.10
2019-03-17T21:27:45.671Z,20.09
2019-03-17T21:30:12.619Z,20.10
2019-03-17T21:32:39.539Z,20.09
2019-03-17T21:35:06.449Z,20.09
2019-03-17T21:37:33.484Z,20.09
2019-03-17T21:40:00.429Z,20.09
2019-03-17T21:42:27.314Z,20.08
2019-03-17T21:44:54.215Z,20.08
2019-03-17T21:47:21.181Z,20.08
2019-03-17T21:49:48.132Z,20.09
2019-03-17T21:52:15.227Z,20.09
2019-03-17T21:54:42.364Z,20.08
2019-03-17T21:57:09.314Z,20.09
2019-03-17T21:59:36.302Z,20.08
2019-03-17T22:02:12.380Z,20.08
2019-03-17T22:04:31.896Z,20.08
2019-03-17T22:06:58.962Z,20.08
2019-03-17T22:09:25.927Z,20.08
2019-03-17T22:11:52.803Z,20.08
2019-03-17T22:14:19.738Z,20.09
2019-03-17T22:16:46.700Z,20.08
2019-03-17T22:19:13.641Z,20.08
2019-03-17T22:21:40.606Z,20.08
2019-03-17T22:24:07.527Z,20.08
2019-03-17T22:26:34.459Z,20.08
2019-03-17T22:29:01.430Z,20.08
2019-03-17T22:31:28.465Z,20.08
2019-03-17T22:33:55.483Z,20.07
2019-03-17T22:36:22.373Z,20.07
2019-03-17T22:38:49.279Z,20.06
2019-03-17T22:41:16.208Z,20.07
2019-03-17T22:43:43.266Z,20.07
2019-03-17T22:46:10.254Z,20.07
2019-03-17T22:48:37.170Z,20.07
2019-03-17T22:51:04.117Z,20.07
2019-03-17T22:53:31.022Z,20.07
2019-03-17T22:55:58.038Z,20.08
2019-03-17T22:58:24.990Z,20.07
2019-03-17T23:00:51.912Z,20.07
2019-03-17T23:03:18.890Z,20.06
2019-03-17T23:05:45.876Z,20.06
2019-03-17T23:08:12.758Z,20.07
2019-03-17T23:10:39.702Z,20.06
2019-03-17T23:13:06.600Z,20.06
2019-03-17T23:15:35.827Z,20.07
2019-03-17T23:18:02.124Z,20.07
2019-03-17T23:20:29.084Z,20.05
2019-03-17T23:22:56.030Z,20.06
2019-03-17T23:25:23.045Z,20.07
2019-03-17T23:27:49.966Z,20.07
2019-03-17T23:30:16.863Z,20.07
2019-03-17T23:32:43.831Z,20.08
2019-03-17T23:35:10.806Z,20.07
2019-03-17T23:37:37.806Z,19.21
2019-03-17T23:40:04.862Z,20.08
2019-03-17T23:42:31.752Z,20.08
2019-03-17T23:44:58.680Z,20.08
2019-03-17T23:47:25.605Z,20.07
2019-03-17T23:49:52.738Z,20.06
2019-03-17T23:52:19.710Z,20.08
2019-03-17T23:54:46.846Z,20.07
2019-03-17T23:57:13.813Z,20.08
2019-03-17T23:59:40.838Z,20.08
